CHS weather

Charleston Air Force Base-International Airport
Charleston, South Carolina, United States

Public forecast

Using degrees Fahrenheit for public forecast. Weather courtesy of forecast.io.

Current aviation weather report (METAR) for Charleston Air Force Base-International Airport

Retrieved 2019/10/20 01:22 UTC (35 minutes ago):

KCHS 200122Z 13012G21KT 4SM -RA BR SCT006 OVC015 22/22 A2978 RMK AO2 T02220217 PNO

Aviation forecast (TAF) for Charleston Air Force Base-International Airport

Retrieved 2019-10-20 00:36 UTC (1 hour ago):

TAF KCHS 192333Z 2000/2024 12014G24KT 3SM SHRA BR OVC007 FM200600 19012KT 6SM -SHRA OVC007 FM201000 23010KT P6SM OVC008 FM201600 29009KT P6SM SCT007 BKN015 FM202100 31008KT P6SM SCT020